sensor_id;sensor_type;location;lat;lon;timestamp;temperature;humidity
25556;DHT22;13447;57.174;-2.112;2023-07-31T00:01:43;14.40;99.90
25556;DHT22;13447;57.174;-2.112;2023-07-31T00:04:10;14.30;99.90
25556;DHT22;13447;57.174;-2.112;2023-07-31T00:06:37;14.30;99.90
25556;DHT22;13447;57.174;-2.112;2023-07-31T00:09:04;14.20;99.90
25556;DHT22;13447;57.174;-2.112;2023-07-31T00:11:31;14.20;99.90
25556;DHT22;13447;57.174;-2.112;2023-07-31T00:13:58;14.20;99.90
25556;DHT22;13447;57.174;-2.112;2023-07-31T00:16:25;14.10;99.90
25556;DHT22;13447;57.174;-2.112;2023-07-31T00:18:52;14.10;99.90
25556;DHT22;13447;57.174;-2.112;2023-07-31T00:21:19;14.10;99.90
25556;DHT22;13447;57.174;-2.112;2023-07-31T00:23:48;14.00;99.90
25556;DHT22;13447;57.174;-2.112;2023-07-31T00:26:15;14.00;99.90
25556;DHT22;13447;57.174;-2.112;2023-07-31T00:28:42;13.90;99.90
25556;DHT22;13447;57.174;-2.112;2023-07-31T00:31:08;13.90;99.90
25556;DHT22;13447;57.174;-2.112;2023-07-31T00:33:35;13.80;99.90
25556;DHT22;13447;57.174;-2.112;2023-07-31T00:36:03;13.70;99.90
25556;DHT22;13447;57.174;-2.112;2023-07-31T00:38:29;13.60;1.00
25556;DHT22;13447;57.174;-2.112;2023-07-31T00:40:56;13.60;1.00
25556;DHT22;13447;57.174;-2.112;2023-07-31T00:43:24;13.60;1.00
25556;DHT22;13447;57.174;-2.112;2023-07-31T00:45:51;13.50;1.00
25556;DHT22;13447;57.174;-2.112;2023-07-31T00:48:17;13.50;1.00
25556;DHT22;13447;57.174;-2.112;2023-07-31T00:50:44;13.50;1.00
25556;DHT22;13447;57.174;-2.112;2023-07-31T00:53:11;13.50;1.00
25556;DHT22;13447;57.174;-2.112;2023-07-31T00:55:39;13.40;1.00
25556;DHT22;13447;57.174;-2.112;2023-07-31T00:58:06;13.30;1.00
25556;DHT22;13447;57.174;-2.112;2023-07-31T01:00:33;13.20;1.00
25556;DHT22;13447;57.174;-2.112;2023-07-31T01:03:00;13.20;1.00
25556;DHT22;13447;57.174;-2.112;2023-07-31T01:05:39;13.20;1.00
25556;DHT22;13447;57.174;-2.112;2023-07-31T01:10:46;13.10;1.00
25556;DHT22;13447;57.174;-2.112;2023-07-31T01:13:15;13.10;1.00
25556;DHT22;13447;57.174;-2.112;2023-07-31T01:15:42;13.00;1.00
25556;DHT22;13447;57.174;-2.112;2023-07-31T01:18:09;13.10;1.00
25556;DHT22;13447;57.174;-2.112;2023-07-31T01:20:36;13.10;1.00
25556;DHT22;13447;57.174;-2.112;2023-07-31T01:28:02;13.00;1.00
25556;DHT22;13447;57.174;-2.112;2023-07-31T01:30:32;13.00;1.00
25556;DHT22;13447;57.174;-2.112;2023-07-31T01:33:02;13.00;1.00
25556;DHT22;13447;57.174;-2.112;2023-07-31T01:35:34;13.10;1.00
25556;DHT22;13447;57.174;-2.112;2023-07-31T01:38:02;13.10;1.00
25556;DHT22;13447;57.174;-2.112;2023-07-31T01:40:29;13.00;1.00
25556;DHT22;13447;57.174;-2.112;2023-07-31T01:42:56;13.00;1.00
25556;DHT22;13447;57.174;-2.112;2023-07-31T01:45:22;13.00;1.00
25556;DHT22;13447;57.174;-2.112;2023-07-31T01:47:49;13.00;1.00
25556;DHT22;13447;57.174;-2.112;2023-07-31T01:50:16;13.00;1.00
25556;DHT22;13447;57.174;-2.112;2023-07-31T01:52:43;13.00;1.00
25556;DHT22;13447;57.174;-2.112;2023-07-31T01:55:09;12.90;1.00
25556;DHT22;13447;57.174;-2.112;2023-07-31T01:57:37;12.90;1.00
25556;DHT22;13447;57.174;-2.112;2023-07-31T02:00:04;12.90;1.00
25556;DHT22;13447;57.174;-2.112;2023-07-31T02:02:32;12.80;1.00
25556;DHT22;13447;57.174;-2.112;2023-07-31T02:04:58;12.80;1.00
25556;DHT22;13447;57.174;-2.112;2023-07-31T02:07:25;12.70;1.00
25556;DHT22;13447;57.174;-2.112;2023-07-31T02:09:52;12.70;1.00
25556;DHT22;13447;57.174;-2.112;2023-07-31T02:12:20;12.70;1.00
25556;DHT22;13447;57.174;-2.112;2023-07-31T02:14:47;12.70;1.00
25556;DHT22;13447;57.174;-2.112;2023-07-31T02:17:14;12.70;1.00
25556;DHT22;13447;57.174;-2.112;2023-07-31T02:19:40;12.70;1.00
25556;DHT22;13447;57.174;-2.112;2023-07-31T02:22:07;12.60;1.00
25556;DHT22;13447;57.174;-2.112;2023-07-31T02:24:34;12.50;1.00
25556;DHT22;13447;57.174;-2.112;2023-07-31T02:27:01;12.50;1.00
25556;DHT22;13447;57.174;-2.112;2023-07-31T02:29:28;12.50;1.00
25556;DHT22;13447;57.174;-2.112;2023-07-31T02:31:55;12.50;1.00
25556;DHT22;13447;57.174;-2.112;2023-07-31T02:34:22;12.40;1.00
25556;DHT22;13447;57.174;-2.112;2023-07-31T02:36:48;12.40;1.00
25556;DHT22;13447;57.174;-2.112;2023-07-31T02:39:15;12.30;99.90
25556;DHT22;13447;57.174;-2.112;2023-07-31T02:41:42;12.40;99.90
25556;DHT22;13447;57.174;-2.112;2023-07-31T02:44:09;12.40;1.00
25556;DHT22;13447;57.174;-2.112;2023-07-31T02:46:37;12.30;99.90
25556;DHT22;13447;57.174;-2.112;2023-07-31T02:49:04;12.20;99.90
25556;DHT22;13447;57.174;-2.112;2023-07-31T02:51:30;12.10;99.90
25556;DHT22;13447;57.174;-2.112;2023-07-31T02:53:57;12.20;99.90
25556;DHT22;13447;57.174;-2.112;2023-07-31T02:56:24;12.20;99.90
25556;DHT22;13447;57.174;-2.112;2023-07-31T02:58:51;12.10;99.90
25556;DHT22;13447;57.174;-2.112;2023-07-31T03:01:18;12.10;99.90
25556;DHT22;13447;57.174;-2.112;2023-07-31T03:03:45;12.00;99.90
25556;DHT22;13447;57.174;-2.112;2023-07-31T03:06:12;12.00;99.90
25556;DHT22;13447;57.174;-2.112;2023-07-31T03:08:38;12.00;99.90
25556;DHT22;13447;57.174;-2.112;2023-07-31T03:11:05;11.90;99.90
25556;DHT22;13447;57.174;-2.112;2023-07-31T03:13:32;11.90;99.90
25556;DHT22;13447;57.174;-2.112;2023-07-31T03:15:59;11.90;99.90
25556;DHT22;13447;57.174;-2.112;2023-07-31T03:18:26;11.90;99.90
25556;DHT22;13447;57.174;-2.112;2023-07-31T03:20:52;11.80;99.90
25556;DHT22;13447;57.174;-2.112;2023-07-31T03:23:19;11.80;99.90
25556;DHT22;13447;57.174;-2.112;2023-07-31T03:25:56;11.80;99.90
25556;DHT22;13447;57.174;-2.112;2023-07-31T03:28:23;11.80;99.90
25556;DHT22;13447;57.174;-2.112;2023-07-31T03:30:51;11.70;99.90
25556;DHT22;13447;57.174;-2.112;2023-07-31T03:33:17;11.70;99.90
25556;DHT22;13447;57.174;-2.112;2023-07-31T03:35:44;11.70;99.90
25556;DHT22;13447;57.174;-2.112;2023-07-31T03:38:11;11.70;99.90
25556;DHT22;13447;57.174;-2.112;2023-07-31T03:40:38;11.70;99.90
25556;DHT22;13447;57.174;-2.112;2023-07-31T03:43:05;11.60;1.00
25556;DHT22;13447;57.174;-2.112;2023-07-31T03:45:32;11.60;1.00
25556;DHT22;13447;57.174;-2.112;2023-07-31T03:47:59;11.60;1.00
25556;DHT22;13447;57.174;-2.112;2023-07-31T03:50:26;11.50;1.00
25556;DHT22;13447;57.174;-2.112;2023-07-31T03:52:53;11.50;99.90
25556;DHT22;13447;57.174;-2.112;2023-07-31T03:55:20;11.50;99.90
25556;DHT22;13447;57.174;-2.112;2023-07-31T03:57:48;11.50;99.90
25556;DHT22;13447;57.174;-2.112;2023-07-31T04:00:15;11.50;99.90
25556;DHT22;13447;57.174;-2.112;2023-07-31T04:02:42;11.50;99.90
25556;DHT22;13447;57.174;-2.112;2023-07-31T04:05:08;11.50;99.90
25556;DHT22;13447;57.174;-2.112;2023-07-31T04:07:36;11.50;99.90
25556;DHT22;13447;57.174;-2.112;2023-07-31T04:10:03;11.50;99.90
25556;DHT22;13447;57.174;-2.112;2023-07-31T04:12:30;11.50;99.90
25556;DHT22;13447;57.174;-2.112;2023-07-31T04:14:56;11.50;99.90
25556;DHT22;13447;57.174;-2.112;2023-07-31T04:17:23;11.40;99.90
25556;DHT22;13447;57.174;-2.112;2023-07-31T04:19:50;11.40;99.90
25556;DHT22;13447;57.174;-2.112;2023-07-31T04:22:17;11.40;99.90
25556;DHT22;13447;57.174;-2.112;2023-07-31T04:24:44;11.40;99.90
25556;DHT22;13447;57.174;-2.112;2023-07-31T04:27:11;11.40;99.90
25556;DHT22;13447;57.174;-2.112;2023-07-31T04:29:38;11.40;99.90
25556;DHT22;13447;57.174;-2.112;2023-07-31T04:32:06;11.30;1.00
25556;DHT22;13447;57.174;-2.112;2023-07-31T04:34:33;11.30;1.00
25556;DHT22;13447;57.174;-2.112;2023-07-31T04:37:00;11.40;1.00
25556;DHT22;13447;57.174;-2.112;2023-07-31T04:39:27;11.40;1.00
25556;DHT22;13447;57.174;-2.112;2023-07-31T04:41:54;11.40;1.00
25556;DHT22;13447;57.174;-2.112;2023-07-31T04:44:21;11.40;1.00
25556;DHT22;13447;57.174;-2.112;2023-07-31T04:46:47;11.50;1.00
25556;DHT22;13447;57.174;-2.112;2023-07-31T04:49:14;11.50;1.00
25556;DHT22;13447;57.174;-2.112;2023-07-31T04:51:41;11.50;1.00
25556;DHT22;13447;57.174;-2.112;2023-07-31T04:54:08;11.50;1.00
25556;DHT22;13447;57.174;-2.112;2023-07-31T04:56:35;11.60;1.00
25556;DHT22;13447;57.174;-2.112;2023-07-31T04:59:02;11.70;1.00
25556;DHT22;13447;57.174;-2.112;2023-07-31T05:01:29;11.70;1.00
25556;DHT22;13447;57.174;-2.112;2023-07-31T05:03:56;11.80;1.00
25556;DHT22;13447;57.174;-2.112;2023-07-31T05:06:23;11.90;1.00
25556;DHT22;13447;57.174;-2.112;2023-07-31T05:08:50;12.00;1.00
25556;DHT22;13447;57.174;-2.112;2023-07-31T05:11:17;12.20;1.00
25556;DHT22;13447;57.174;-2.112;2023-07-31T05:13:44;12.30;1.00
25556;DHT22;13447;57.174;-2.112;2023-07-31T05:16:11;12.40;1.00
25556;DHT22;13447;57.174;-2.112;2023-07-31T05:18:37;12.40;1.00
25556;DHT22;13447;57.174;-2.112;2023-07-31T05:21:04;12.50;1.00
25556;DHT22;13447;57.174;-2.112;2023-07-31T05:23:31;12.60;1.00
25556;DHT22;13447;57.174;-2.112;2023-07-31T05:26:03;12.70;1.00
25556;DHT22;13447;57.174;-2.112;2023-07-31T05:28:30;12.90;1.00
25556;DHT22;13447;57.174;-2.112;2023-07-31T05:31:00;12.90;1.00
25556;DHT22;13447;57.174;-2.112;2023-07-31T05:33:27;13.00;1.00
25556;DHT22;13447;57.174;-2.112;2023-07-31T05:35:54;13.10;1.00
25556;DHT22;13447;57.174;-2.112;2023-07-31T05:38:21;13.10;1.00
25556;DHT22;13447;57.174;-2.112;2023-07-31T05:40:48;13.20;1.00
25556;DHT22;13447;57.174;-2.112;2023-07-31T05:43:15;13.20;1.00
25556;DHT22;13447;57.174;-2.112;2023-07-31T05:45:42;13.30;1.00
25556;DHT22;13447;57.174;-2.112;2023-07-31T05:48:09;13.30;1.00
25556;DHT22;13447;57.174;-2.112;2023-07-31T05:50:36;13.40;1.00
25556;DHT22;13447;57.174;-2.112;2023-07-31T05:53:05;13.50;1.00
25556;DHT22;13447;57.174;-2.112;2023-07-31T05:55:33;13.60;1.00
25556;DHT22;13447;57.174;-2.112;2023-07-31T05:58:00;13.60;1.00
25556;DHT22;13447;57.174;-2.112;2023-07-31T06:00:27;13.60;1.00
25556;DHT22;13447;57.174;-2.112;2023-07-31T06:02:54;13.60;1.00
25556;DHT22;13447;57.174;-2.112;2023-07-31T06:05:21;13.70;1.00
25556;DHT22;13447;57.174;-2.112;2023-07-31T06:07:48;13.80;1.00
25556;DHT22;13447;57.174;-2.112;2023-07-31T06:10:15;13.90;1.00
25556;DHT22;13447;57.174;-2.112;2023-07-31T06:12:42;13.90;1.00
25556;DHT22;13447;57.174;-2.112;2023-07-31T06:15:09;14.00;1.00
25556;DHT22;13447;57.174;-2.112;2023-07-31T06:17:36;14.00;1.00
25556;DHT22;13447;57.174;-2.112;2023-07-31T06:20:03;14.10;1.00
25556;DHT22;13447;57.174;-2.112;2023-07-31T06:22:31;14.30;1.00
25556;DHT22;13447;57.174;-2.112;2023-07-31T06:24:58;14.30;1.00
25556;DHT22;13447;57.174;-2.112;2023-07-31T06:27:25;14.50;1.00
25556;DHT22;13447;57.174;-2.112;2023-07-31T06:29:52;14.60;1.00
25556;DHT22;13447;57.174;-2.112;2023-07-31T06:32:19;14.70;1.00
25556;DHT22;13447;57.174;-2.112;2023-07-31T06:34:45;14.80;1.00
25556;DHT22;13447;57.174;-2.112;2023-07-31T06:37:12;14.90;1.00
25556;DHT22;13447;57.174;-2.112;2023-07-31T06:39:39;15.00;1.00
25556;DHT22;13447;57.174;-2.112;2023-07-31T06:42:06;15.10;1.00
25556;DHT22;13447;57.174;-2.112;2023-07-31T06:44:33;15.10;1.00
25556;DHT22;13447;57.174;-2.112;2023-07-31T06:47:00;15.20;1.00
25556;DHT22;13447;57.174;-2.112;2023-07-31T06:49:27;15.30;1.00
25556;DHT22;13447;57.174;-2.112;2023-07-31T06:51:54;15.30;1.00
25556;DHT22;13447;57.174;-2.112;2023-07-31T06:54:20;15.40;1.00
25556;DHT22;13447;57.174;-2.112;2023-07-31T06:56:47;15.50;1.00
25556;DHT22;13447;57.174;-2.112;2023-07-31T06:59:14;15.60;1.00
25556;DHT22;13447;57.174;-2.112;2023-07-31T07:01:41;15.60;1.00
25556;DHT22;13447;57.174;-2.112;2023-07-31T07:04:08;15.70;1.00
25556;DHT22;13447;57.174;-2.112;2023-07-31T07:06:35;15.90;1.00
25556;DHT22;13447;57.174;-2.112;2023-07-31T07:09:02;16.10;1.00
25556;DHT22;13447;57.174;-2.112;2023-07-31T07:11:30;16.20;1.00
25556;DHT22;13447;57.174;-2.112;2023-07-31T07:13:56;16.30;1.00
25556;DHT22;13447;57.174;-2.112;2023-07-31T07:16:23;16.40;1.00
25556;DHT22;13447;57.174;-2.112;2023-07-31T07:18:50;16.60;1.00
25556;DHT22;13447;57.174;-2.112;2023-07-31T07:21:30;16.60;1.00
25556;DHT22;13447;57.174;-2.112;2023-07-31T07:23:57;16.70;1.00
25556;DHT22;13447;57.174;-2.112;2023-07-31T07:26:24;16.80;99.90
25556;DHT22;13447;57.174;-2.112;2023-07-31T07:28:50;16.90;99.90
25556;DHT22;13447;57.174;-2.112;2023-07-31T07:31:17;16.90;99.90
25556;DHT22;13447;57.174;-2.112;2023-07-31T07:33:44;17.10;99.90
25556;DHT22;13447;57.174;-2.112;2023-07-31T07:36:11;17.10;99.90
25556;DHT22;13447;57.174;-2.112;2023-07-31T07:38:39;17.20;99.90
25556;DHT22;13447;57.174;-2.112;2023-07-31T07:41:07;17.20;99.90
25556;DHT22;13447;57.174;-2.112;2023-07-31T07:43:34;17.40;99.90
25556;DHT22;13447;57.174;-2.112;2023-07-31T07:46:01;17.40;99.90
25556;DHT22;13447;57.174;-2.112;2023-07-31T07:48:28;17.40;99.90
25556;DHT22;13447;57.174;-2.112;2023-07-31T07:50:55;17.50;99.90
25556;DHT22;13447;57.174;-2.112;2023-07-31T07:55:56;17.60;99.90
25556;DHT22;13447;57.174;-2.112;2023-07-31T07:58:24;17.60;99.90
25556;DHT22;13447;57.174;-2.112;2023-07-31T08:00:51;17.70;99.90
25556;DHT22;13447;57.174;-2.112;2023-07-31T08:03:18;17.70;99.90
25556;DHT22;13447;57.174;-2.112;2023-07-31T08:05:45;17.60;99.90
25556;DHT22;13447;57.174;-2.112;2023-07-31T08:08:15;17.70;99.90
25556;DHT22;13447;57.174;-2.112;2023-07-31T08:10:44;17.80;99.90
25556;DHT22;13447;57.174;-2.112;2023-07-31T08:13:11;17.70;99.90
25556;DHT22;13447;57.174;-2.112;2023-07-31T08:15:40;17.90;99.90
25556;DHT22;13447;57.174;-2.112;2023-07-31T08:18:07;17.80;99.90
25556;DHT22;13447;57.174;-2.112;2023-07-31T08:20:34;17.80;99.90
25556;DHT22;13447;57.174;-2.112;2023-07-31T08:23:01;17.80;99.90
25556;DHT22;13447;57.174;-2.112;2023-07-31T08:25:28;17.80;99.90
25556;DHT22;13447;57.174;-2.112;2023-07-31T08:27:55;18.00;99.90
25556;DHT22;13447;57.174;-2.112;2023-07-31T08:30:22;18.00;99.90
25556;DHT22;13447;57.174;-2.112;2023-07-31T08:32:49;18.30;99.90
25556;DHT22;13447;57.174;-2.112;2023-07-31T08:35:15;18.50;55.40
25556;DHT22;13447;57.174;-2.112;2023-07-31T08:37:42;18.50;1.00
25556;DHT22;13447;57.174;-2.112;2023-07-31T08:40:10;18.40;1.00
25556;DHT22;13447;57.174;-2.112;2023-07-31T08:42:46;18.30;1.00
25556;DHT22;13447;57.174;-2.112;2023-07-31T08:45:13;18.40;1.00
25556;DHT22;13447;57.174;-2.112;2023-07-31T08:47:42;18.70;1.00
25556;DHT22;13447;57.174;-2.112;2023-07-31T08:50:12;18.90;10.90
25556;DHT22;13447;57.174;-2.112;2023-07-31T08:52:39;19.00;49.20
25556;DHT22;13447;57.174;-2.112;2023-07-31T08:55:07;18.90;24.60
25556;DHT22;13447;57.174;-2.112;2023-07-31T08:57:35;18.80;39.30
25556;DHT22;13447;57.174;-2.112;2023-07-31T09:00:02;18.60;84.90
25556;DHT22;13447;57.174;-2.112;2023-07-31T09:02:34;18.50;99.90
25556;DHT22;13447;57.174;-2.112;2023-07-31T09:05:01;18.50;99.90
25556;DHT22;13447;57.174;-2.112;2023-07-31T09:07:29;18.30;99.90
25556;DHT22;13447;57.174;-2.112;2023-07-31T09:09:58;18.30;99.90
25556;DHT22;13447;57.174;-2.112;2023-07-31T09:12:25;18.30;99.90
25556;DHT22;13447;57.174;-2.112;2023-07-31T09:14:52;18.10;99.90
25556;DHT22;13447;57.174;-2.112;2023-07-31T09:17:31;17.90;99.90
25556;DHT22;13447;57.174;-2.112;2023-07-31T09:20:12;17.90;99.90
25556;DHT22;13447;57.174;-2.112;2023-07-31T09:22:39;18.00;99.90
25556;DHT22;13447;57.174;-2.112;2023-07-31T09:28:03;18.10;99.90
25556;DHT22;13447;57.174;-2.112;2023-07-31T09:30:36;18.50;99.90
25556;DHT22;13447;57.174;-2.112;2023-07-31T09:33:10;18.60;99.90
25556;DHT22;13447;57.174;-2.112;2023-07-31T09:35:37;18.60;99.90
25556;DHT22;13447;57.174;-2.112;2023-07-31T09:38:14;18.60;99.90
25556;DHT22;13447;57.174;-2.112;2023-07-31T09:40:42;18.70;99.90
25556;DHT22;13447;57.174;-2.112;2023-07-31T09:43:12;18.50;99.90
25556;DHT22;13447;57.174;-2.112;2023-07-31T09:45:40;18.40;99.90
25556;DHT22;13447;57.174;-2.112;2023-07-31T09:48:08;18.30;99.90
25556;DHT22;13447;57.174;-2.112;2023-07-31T09:50:39;18.40;99.90
25556;DHT22;13447;57.174;-2.112;2023-07-31T09:53:06;18.50;99.90
25556;DHT22;13447;57.174;-2.112;2023-07-31T09:55:34;18.70;99.90
25556;DHT22;13447;57.174;-2.112;2023-07-31T09:58:04;19.00;99.90
25556;DHT22;13447;57.174;-2.112;2023-07-31T10:00:31;19.20;99.90
25556;DHT22;13447;57.174;-2.112;2023-07-31T10:02:59;19.20;99.90
25556;DHT22;13447;57.174;-2.112;2023-07-31T10:05:30;19.20;99.90
25556;DHT22;13447;57.174;-2.112;2023-07-31T10:07:57;19.10;99.90
25556;DHT22;13447;57.174;-2.112;2023-07-31T10:10:24;18.70;99.90
25556;DHT22;13447;57.174;-2.112;2023-07-31T10:12:52;18.60;99.90
25556;DHT22;13447;57.174;-2.112;2023-07-31T10:15:19;18.60;99.90
25556;DHT22;13447;57.174;-2.112;2023-07-31T10:17:47;18.60;99.90
25556;DHT22;13447;57.174;-2.112;2023-07-31T10:20:14;18.80;99.90
25556;DHT22;13447;57.174;-2.112;2023-07-31T10:22:45;18.90;85.20
25556;DHT22;13447;57.174;-2.112;2023-07-31T10:25:13;19.20;88.80
25556;DHT22;13447;57.174;-2.112;2023-07-31T10:27:41;19.40;81.20
25556;DHT22;13447;57.174;-2.112;2023-07-31T10:30:10;19.40;94.20
25556;DHT22;13447;57.174;-2.112;2023-07-31T10:32:38;19.50;83.40
25556;DHT22;13447;57.174;-2.112;2023-07-31T10:35:06;19.50;50.10
25556;DHT22;13447;57.174;-2.112;2023-07-31T10:42:31;19.00;91.00
25556;DHT22;13447;57.174;-2.112;2023-07-31T10:44:59;19.00;58.60
25556;DHT22;13447;57.174;-2.112;2023-07-31T10:47:26;19.00;99.90
25556;DHT22;13447;57.174;-2.112;2023-07-31T10:49:55;18.80;99.90
25556;DHT22;13447;57.174;-2.112;2023-07-31T10:52:37;18.60;99.90
25556;DHT22;13447;57.174;-2.112;2023-07-31T10:57:50;18.50;99.90
25556;DHT22;13447;57.174;-2.112;2023-07-31T11:00:28;18.40;99.90
25556;DHT22;13447;57.174;-2.112;2023-07-31T11:05:44;18.30;99.90
25556;DHT22;13447;57.174;-2.112;2023-07-31T11:10:38;18.10;99.90
25556;DHT22;13447;57.174;-2.112;2023-07-31T11:13:05;17.80;99.90
25556;DHT22;13447;57.174;-2.112;2023-07-31T11:15:32;17.90;99.90
25556;DHT22;13447;57.174;-2.112;2023-07-31T11:18:00;17.80;99.90
25556;DHT22;13447;57.174;-2.112;2023-07-31T11:20:27;17.80;99.90
25556;DHT22;13447;57.174;-2.112;2023-07-31T11:22:53;17.80;99.90
25556;DHT22;13447;57.174;-2.112;2023-07-31T11:25:20;17.70;99.90
25556;DHT22;13447;57.174;-2.112;2023-07-31T11:27:49;17.70;99.90
25556;DHT22;13447;57.174;-2.112;2023-07-31T11:30:20;17.70;99.90
25556;DHT22;13447;57.174;-2.112;2023-07-31T11:32:47;17.80;99.90
25556;DHT22;13447;57.174;-2.112;2023-07-31T11:35:14;18.00;99.90
25556;DHT22;13447;57.174;-2.112;2023-07-31T11:37:41;18.00;99.90
25556;DHT22;13447;57.174;-2.112;2023-07-31T11:40:08;18.10;99.90
25556;DHT22;13447;57.174;-2.112;2023-07-31T11:42:35;18.20;99.90
25556;DHT22;13447;57.174;-2.112;2023-07-31T11:45:03;18.30;99.90
25556;DHT22;13447;57.174;-2.112;2023-07-31T11:47:32;18.20;99.90
25556;DHT22;13447;57.174;-2.112;2023-07-31T11:50:01;18.10;99.90
25556;DHT22;13447;57.174;-2.112;2023-07-31T11:52:29;18.00;99.90
25556;DHT22;13447;57.174;-2.112;2023-07-31T11:54:56;18.10;99.90
25556;DHT22;13447;57.174;-2.112;2023-07-31T11:57:23;17.90;99.90
25556;DHT22;13447;57.174;-2.112;2023-07-31T11:59:51;17.70;99.90
25556;DHT22;13447;57.174;-2.112;2023-07-31T12:02:18;17.70;99.90
25556;DHT22;13447;57.174;-2.112;2023-07-31T12:04:46;17.70;99.90
25556;DHT22;13447;57.174;-2.112;2023-07-31T12:07:13;17.60;99.90
25556;DHT22;13447;57.174;-2.112;2023-07-31T12:10:01;17.60;99.90
25556;DHT22;13447;57.174;-2.112;2023-07-31T12:12:27;17.70;99.90
25556;DHT22;13447;57.174;-2.112;2023-07-31T12:14:53;17.60;99.90
25556;DHT22;13447;57.174;-2.112;2023-07-31T12:17:21;17.60;99.90
25556;DHT22;13447;57.174;-2.112;2023-07-31T12:19:48;17.50;99.90
25556;DHT22;13447;57.174;-2.112;2023-07-31T12:22:16;17.40;99.90
25556;DHT22;13447;57.174;-2.112;2023-07-31T12:24:44;17.50;99.90
25556;DHT22;13447;57.174;-2.112;2023-07-31T12:27:12;17.40;99.90
25556;DHT22;13447;57.174;-2.112;2023-07-31T12:29:42;17.40;99.90
25556;DHT22;13447;57.174;-2.112;2023-07-31T12:32:22;17.50;99.90
25556;DHT22;13447;57.174;-2.112;2023-07-31T12:34:50;17.40;99.90
25556;DHT22;13447;57.174;-2.112;2023-07-31T12:37:17;17.40;99.90
25556;DHT22;13447;57.174;-2.112;2023-07-31T12:39:44;17.40;99.90
25556;DHT22;13447;57.174;-2.112;2023-07-31T12:42:11;17.40;99.90
25556;DHT22;13447;57.174;-2.112;2023-07-31T12:44:38;17.20;99.90
25556;DHT22;13447;57.174;-2.112;2023-07-31T12:47:05;17.00;99.90
25556;DHT22;13447;57.174;-2.112;2023-07-31T12:49:32;17.00;99.90
25556;DHT22;13447;57.174;-2.112;2023-07-31T12:51:59;17.10;99.90
25556;DHT22;13447;57.174;-2.112;2023-07-31T12:54:26;17.00;1.00
25556;DHT22;13447;57.174;-2.112;2023-07-31T12:56:52;17.00;1.00
25556;DHT22;13447;57.174;-2.112;2023-07-31T12:59:21;16.90;1.00
25556;DHT22;13447;57.174;-2.112;2023-07-31T13:01:48;16.80;1.00
25556;DHT22;13447;57.174;-2.112;2023-07-31T13:04:15;16.80;1.00
25556;DHT22;13447;57.174;-2.112;2023-07-31T13:06:42;16.80;1.00
25556;DHT22;13447;57.174;-2.112;2023-07-31T13:09:09;16.70;1.00
25556;DHT22;13447;57.174;-2.112;2023-07-31T13:11:36;16.60;1.00
25556;DHT22;13447;57.174;-2.112;2023-07-31T13:14:03;16.30;1.00
25556;DHT22;13447;57.174;-2.112;2023-07-31T13:16:30;16.40;1.00
25556;DHT22;13447;57.174;-2.112;2023-07-31T13:18:57;16.30;1.00
25556;DHT22;13447;57.174;-2.112;2023-07-31T13:21:23;16.20;1.00
25556;DHT22;13447;57.174;-2.112;2023-07-31T13:23:50;16.20;1.00
25556;DHT22;13447;57.174;-2.112;2023-07-31T13:26:17;16.20;1.00
25556;DHT22;13447;57.174;-2.112;2023-07-31T13:28:44;16.20;1.00
25556;DHT22;13447;57.174;-2.112;2023-07-31T13:31:11;16.10;1.00
25556;DHT22;13447;57.174;-2.112;2023-07-31T13:33:38;16.00;1.00
25556;DHT22;13447;57.174;-2.112;2023-07-31T13:36:08;16.00;1.00
25556;DHT22;13447;57.174;-2.112;2023-07-31T13:38:35;16.00;1.00
25556;DHT22;13447;57.174;-2.112;2023-07-31T13:41:02;16.00;1.00
25556;DHT22;13447;57.174;-2.112;2023-07-31T13:43:29;16.00;1.00
25556;DHT22;13447;57.174;-2.112;2023-07-31T13:45:56;15.90;1.00
25556;DHT22;13447;57.174;-2.112;2023-07-31T13:48:23;15.90;1.00
25556;DHT22;13447;57.174;-2.112;2023-07-31T13:50:50;15.90;1.00
25556;DHT22;13447;57.174;-2.112;2023-07-31T13:53:17;15.90;1.00
25556;DHT22;13447;57.174;-2.112;2023-07-31T13:55:44;15.80;1.00
25556;DHT22;13447;57.174;-2.112;2023-07-31T13:58:12;15.80;1.00
25556;DHT22;13447;57.174;-2.112;2023-07-31T14:00:39;15.70;1.00
25556;DHT22;13447;57.174;-2.112;2023-07-31T14:03:06;15.70;1.00
25556;DHT22;13447;57.174;-2.112;2023-07-31T14:05:33;15.80;1.00
25556;DHT22;13447;57.174;-2.112;2023-07-31T14:08:00;15.80;1.00
25556;DHT22;13447;57.174;-2.112;2023-07-31T14:10:27;15.80;1.00
25556;DHT22;13447;57.174;-2.112;2023-07-31T14:12:57;15.70;1.00
25556;DHT22;13447;57.174;-2.112;2023-07-31T14:15:24;15.70;1.00
25556;DHT22;13447;57.174;-2.112;2023-07-31T14:17:50;15.70;1.00
25556;DHT22;13447;57.174;-2.112;2023-07-31T14:20:18;15.70;1.00
25556;DHT22;13447;57.174;-2.112;2023-07-31T14:22:45;15.70;1.00
25556;DHT22;13447;57.174;-2.112;2023-07-31T14:25:12;15.70;1.00
25556;DHT22;13447;57.174;-2.112;2023-07-31T14:27:40;15.70;1.00
25556;DHT22;13447;57.174;-2.112;2023-07-31T15:16:43;15.60;1.00
25556;DHT22;13447;57.174;-2.112;2023-07-31T15:19:10;15.60;1.00
25556;DHT22;13447;57.174;-2.112;2023-07-31T15:21:37;15.60;1.00
25556;DHT22;13447;57.174;-2.112;2023-07-31T15:24:05;15.50;1.00
25556;DHT22;13447;57.174;-2.112;2023-07-31T15:26:32;15.50;1.00
25556;DHT22;13447;57.174;-2.112;2023-07-31T15:29:02;15.30;1.00
25556;DHT22;13447;57.174;-2.112;2023-07-31T15:31:32;15.40;1.00
25556;DHT22;13447;57.174;-2.112;2023-07-31T15:33:59;15.40;1.00
25556;DHT22;13447;57.174;-2.112;2023-07-31T15:36:26;15.30;1.00
25556;DHT22;13447;57.174;-2.112;2023-07-31T15:38:52;15.30;1.00
25556;DHT22;13447;57.174;-2.112;2023-07-31T15:41:19;15.40;1.00
25556;DHT22;13447;57.174;-2.112;2023-07-31T15:43:48;15.40;1.00
25556;DHT22;13447;57.174;-2.112;2023-07-31T15:46:15;15.30;1.00
25556;DHT22;13447;57.174;-2.112;2023-07-31T15:48:42;15.30;1.00
25556;DHT22;13447;57.174;-2.112;2023-07-31T15:51:09;15.30;1.00
25556;DHT22;13447;57.174;-2.112;2023-07-31T15:53:36;15.30;1.00
25556;DHT22;13447;57.174;-2.112;2023-07-31T15:56:03;15.20;1.00
25556;DHT22;13447;57.174;-2.112;2023-07-31T15:58:30;15.20;1.00
25556;DHT22;13447;57.174;-2.112;2023-07-31T16:00:57;15.30;1.00
25556;DHT22;13447;57.174;-2.112;2023-07-31T16:03:24;15.20;1.00
25556;DHT22;13447;57.174;-2.112;2023-07-31T16:05:51;15.20;1.00
25556;DHT22;13447;57.174;-2.112;2023-07-31T16:08:18;15.20;1.00
25556;DHT22;13447;57.174;-2.112;2023-07-31T16:10:45;15.20;1.00
25556;DHT22;13447;57.174;-2.112;2023-07-31T16:13:12;15.20;1.00
25556;DHT22;13447;57.174;-2.112;2023-07-31T16:15:39;15.20;1.00
25556;DHT22;13447;57.174;-2.112;2023-07-31T16:18:06;15.10;1.00
25556;DHT22;13447;57.174;-2.112;2023-07-31T16:20:32;15.10;1.00
25556;DHT22;13447;57.174;-2.112;2023-07-31T16:22:59;15.10;1.00
25556;DHT22;13447;57.174;-2.112;2023-07-31T16:25:26;15.00;1.00
25556;DHT22;13447;57.174;-2.112;2023-07-31T16:27:53;15.00;1.00
25556;DHT22;13447;57.174;-2.112;2023-07-31T16:30:20;15.00;1.00
25556;DHT22;13447;57.174;-2.112;2023-07-31T16:32:47;15.00;1.00
25556;DHT22;13447;57.174;-2.112;2023-07-31T16:35:16;15.00;1.00
25556;DHT22;13447;57.174;-2.112;2023-07-31T16:37:43;15.00;1.00
25556;DHT22;13447;57.174;-2.112;2023-07-31T16:40:10;15.00;1.00